Time;durP1;ratioP1;P1;durP2;ratioP2;P2;SDS_P1;SDS_P2;PMS_P1;PMS_P2;Temp;Humidity;BMP_temperature;BMP_pressure;BME280_temperature;BME280_humidity;BME280_pressure;Samples;Min_cycle;Max_cycle;Signal;HPM_P1;HPM_P2
2021/09/23 04:53:14;;;;;;;;;;;10.20;99.90;;;;;;6222520;22;19916;-81
2021/09/23 04:56:16;;;;;;;;;;;10.20;99.90;;;;;;6233866;23;19919;-81
2021/09/23 04:59:15;;;;;;;;;;;10.20;99.90;;;;;;6233469;23;19960;-81
2021/09/23 05:02:36;;;;;;;;;;;10.20;99.90;;;;;;6231029;23;20237;-81
2021/09/23 05:05:27;;;;;;;;;;;10.10;99.90;;;;;;6237219;22;19920;-81
2021/09/23 05:08:30;;;;;;;;;;;10.10;99.90;;;;;;6223707;23;19923;-81
2021/09/23 11:47:51;;;;;;;;;;;19.70;99.90;;;;;;6229080;22;20325;-66
2021/09/23 11:50:41;;;;;;;;;;;19.60;99.90;;;;;;6218365;23;19994;-65
2021/09/23 11:53:31;;;;;;;;;;;19.50;99.90;;;;;;6222126;23;20345;-66
2021/09/23 11:56:22;;;;;;;;;;;19.60;99.90;;;;;;6218194;23;19923;-65
2021/09/23 11:59:18;;;;;;;;;;;19.70;99.90;;;;;;6239024;23;19930;-66
2021/09/23 12:02:08;;;;;;;;;;;19.80;99.90;;;;;;6209234;23;19930;-66
2021/09/23 12:05:00;;;;;;;;;;;19.90;99.90;;;;;;6241034;23;19993;-65
2021/09/23 12:07:51;;;;;;;;;;;19.90;99.90;;;;;;6218979;23;20283;-66
2021/09/23 12:10:43;;;;;;;;;;;20.00;99.90;;;;;;6218103;23;19943;-65
2021/09/23 12:13:37;;;;;;;;;;;20.00;99.90;;;;;;6219762;23;20015;-65
2021/09/23 12:16:30;;;;;;;;;;;20.00;99.90;;;;;;6206332;22;19919;-76
2021/09/23 12:19:29;;;;;;;;;;;20.10;99.90;;;;;;6204794;23;19970;-76
2021/09/23 12:22:28;;;;;;;;;;;20.00;99.20;;;;;;6200585;23;19919;-73
2021/09/23 12:25:17;;;;;;;;;;;20.00;99.20;;;;;;6198031;23;19999;-74
2021/09/23 12:28:07;;;;;;;;;;;20.10;98.70;;;;;;6199023;23;20341;-73
2021/09/23 12:30:59;;;;;;;;;;;20.10;98.80;;;;;;6188836;23;19975;-71
2021/09/23 12:33:52;;;;;;;;;;;20.20;98.80;;;;;;6196554;23;20548;-71
2021/09/23 12:36:42;;;;;;;;;;;20.30;98.60;;;;;;6196973;23;19927;-72
2021/09/23 12:39:37;;;;;;;;;;;20.30;98.70;;;;;;6217818;23;19973;-72
2021/09/23 12:42:29;;;;;;;;;;;20.30;98.30;;;;;;6195731;23;19948;-72
2021/09/23 12:45:24;;;;;;;;;;;20.30;97.50;;;;;;6211956;23;19958;-71
2021/09/23 12:48:15;;;;;;;;;;;20.40;96.90;;;;;;6198226;23;19919;-72
2021/09/23 12:51:09;;;;;;;;;;;20.40;97.20;;;;;;6217568;23;20080;-72
2021/09/23 12:54:20;;;;;;;;;;;20.40;97.50;;;;;;6197751;23;19995;-71
2021/09/23 13:00:27;;;;;;;;;;;20.50;95.70;;;;;;6187795;23;19971;-71
2021/09/23 13:03:53;;;;;;;;;;;20.50;95.30;;;;;;6194731;23;19951;-71
2021/09/23 13:06:52;;;;;;;;;;;20.50;95.70;;;;;;6218503;23;19926;-71
2021/09/23 13:09:42;;;;;;;;;;;20.60;95.90;;;;;;6197274;23;19927;-73
2021/09/23 13:12:36;;;;;;;;;;;20.70;96.00;;;;;;6217226;23;19920;-71
2021/09/23 13:15:47;;;;;;;;;;;20.70;96.20;;;;;;6190062;23;19924;-72
2021/09/23 13:18:37;;;;;;;;;;;20.70;96.30;;;;;;6196813;23;19920;-73
2021/09/23 13:21:37;;;;;;;;;;;20.70;95.90;;;;;;6197032;23;19920;-72
2021/09/23 13:24:26;;;;;;;;;;;20.70;95.90;;;;;;6198089;23;20412;-72
2021/09/23 13:27:16;;;;;;;;;;;20.80;95.50;;;;;;6215284;23;19934;-72
2021/09/23 13:30:12;;;;;;;;;;;20.70;95.40;;;;;;6186581;23;20329;-71
2021/09/23 13:33:07;;;;;;;;;;;20.70;95.10;;;;;;6191766;23;19937;-71
2021/09/23 13:35:56;;;;;;;;;;;20.80;95.50;;;;;;6193680;23;19986;-69
2021/09/23 13:38:45;;;;;;;;;;;20.80;95.70;;;;;;6193780;23;19931;-70
2021/09/23 13:41:58;;;;;;;;;;;20.80;95.80;;;;;;6207538;23;19927;-71
2021/09/23 13:45:00;;;;;;;;;;;20.90;95.60;;;;;;6194084;23;19963;-72
2021/09/23 13:48:15;;;;;;;;;;;21.00;95.50;;;;;;6214105;23;20002;-71
2021/09/23 13:51:09;;;;;;;;;;;21.00;95.20;;;;;;6194521;23;19924;-72
2021/09/23 13:53:58;;;;;;;;;;;21.00;95.80;;;;;;6196881;23;19943;-72
2021/09/23 13:56:47;;;;;;;;;;;21.00;95.80;;;;;;6195766;23;19946;-71
2021/09/23 13:59:36;;;;;;;;;;;21.00;95.90;;;;;;6195557;23;20264;-72
2021/09/23 14:02:28;;;;;;;;;;;21.00;95.70;;;;;;6192147;23;20234;-72
2021/09/23 14:05:19;;;;;;;;;;;21.00;95.70;;;;;;6195625;23;20023;-72
2021/09/23 14:08:11;;;;;;;;;;;21.00;95.70;;;;;;6196131;23;19919;-72
2021/09/23 14:11:02;;;;;;;;;;;21.00;96.10;;;;;;6195773;23;19927;-72
2021/09/23 14:14:11;;;;;;;;;;;21.10;96.00;;;;;;6196983;23;19920;-73
2021/09/23 14:17:00;;;;;;;;;;;21.10;95.30;;;;;;6190664;23;19920;-72
2021/09/23 14:19:50;;;;;;;;;;;21.10;95.20;;;;;;6196523;23;20520;-73
2021/09/23 14:22:40;;;;;;;;;;;21.10;95.30;;;;;;6195914;23;20411;-72
2021/09/23 14:25:31;;;;;;;;;;;21.10;95.00;;;;;;6197477;23;19974;-72
2021/09/23 14:28:20;;;;;;;;;;;21.20;94.90;;;;;;6198226;22;20018;-73
2021/09/23 14:31:09;;;;;;;;;;;21.20;94.10;;;;;;6187433;23;19920;-72
2021/09/23 14:34:06;;;;;;;;;;;21.20;94.00;;;;;;6194912;23;19920;-72
2021/09/23 14:36:55;;;;;;;;;;;21.20;93.80;;;;;;6217326;23;19920;-72
2021/09/23 14:39:48;;;;;;;;;;;21.20;94.00;;;;;;6217566;23;19928;-72
2021/09/23 14:42:39;;;;;;;;;;;21.30;94.20;;;;;;6222050;23;19958;-72
2021/09/23 14:45:28;;;;;;;;;;;21.30;94.10;;;;;;6211632;23;19924;-73
2021/09/23 14:48:17;;;;;;;;;;;21.20;94.30;;;;;;6177817;23;19999;-75
2021/09/23 14:51:10;;;;;;;;;;;21.30;94.30;;;;;;6218662;23;19978;-72
2021/09/23 14:53:59;;;;;;;;;;;21.30;94.40;;;;;;6218703;23;20227;-73
2021/09/23 14:56:48;;;;;;;;;;;21.20;94.70;;;;;;6196489;23;19920;-73
2021/09/23 14:59:39;;;;;;;;;;;21.20;94.30;;;;;;6196387;23;19919;-73
2021/09/23 15:02:28;;;;;;;;;;;21.20;94.50;;;;;;6194609;23;19920;-73
2021/09/23 15:05:18;;;;;;;;;;;21.20;93.90;;;;;;6219929;23;19995;-73
2021/09/23 15:08:07;;;;;;;;;;;21.20;93.60;;;;;;6217815;23;19919;-73
2021/09/23 15:10:55;;;;;;;;;;;21.20;93.50;;;;;;6219757;23;19966;-73
2021/09/23 15:13:44;;;;;;;;;;;21.20;93.20;;;;;;6197239;23;20010;-73
2021/09/23 15:16:35;;;;;;;;;;;21.20;93.10;;;;;;6211082;23;19955;-72
2021/09/23 15:19:24;;;;;;;;;;;21.20;93.50;;;;;;6220173;23;19920;-73
2021/09/23 15:22:13;;;;;;;;;;;21.20;93.30;;;;;;6218709;23;19920;-74
2021/09/23 15:25:09;;;;;;;;;;;21.20;93.30;;;;;;6197879;23;19931;-73
2021/09/23 15:27:59;;;;;;;;;;;21.20;93.10;;;;;;6219324;23;19920;-73
2021/09/23 15:30:48;;;;;;;;;;;21.20;93.00;;;;;;6211999;23;19962;-72
2021/09/23 15:33:38;;;;;;;;;;;21.20;93.00;;;;;;6229689;23;19920;-73
2021/09/23 15:39:39;;;;;;;;;;;21.10;93.40;;;;;;6217813;23;20334;-73
2021/09/23 15:42:28;;;;;;;;;;;21.10;93.20;;;;;;6218409;23;19942;-72
2021/09/23 15:45:17;;;;;;;;;;;21.10;93.50;;;;;;6206449;23;20273;-73
2021/09/23 15:48:32;;;;;;;;;;;21.10;93.00;;;;;;6218428;23;19920;-73
2021/09/23 15:51:21;;;;;;;;;;;21.00;93.00;;;;;;6218685;23;20301;-74
2021/09/23 15:54:13;;;;;;;;;;;21.10;93.50;;;;;;6218520;23;19925;-72
2021/09/23 15:57:27;;;;;;;;;;;21.10;93.40;;;;;;6217753;23;20229;-72
2021/09/23 16:00:17;;;;;;;;;;;21.00;93.20;;;;;;6211648;23;20331;-74
2021/09/23 16:03:07;;;;;;;;;;;21.00;93.00;;;;;;6217471;23;19920;-74
2021/09/23 16:05:56;;;;;;;;;;;20.90;93.20;;;;;;6218621;23;19924;-72
2021/09/23 16:08:49;;;;;;;;;;;20.90;93.30;;;;;;6217587;23;19920;-73
2021/09/23 16:11:38;;;;;;;;;;;20.90;93.50;;;;;;6196010;23;19990;-73
2021/09/23 16:14:26;;;;;;;;;;;20.80;93.20;;;;;;6219628;23;20011;-73
2021/09/23 16:17:15;;;;;;;;;;;20.80;93.60;;;;;;6207847;23;20002;-72
2021/09/23 16:20:05;;;;;;;;;;;20.70;93.30;;;;;;6220750;23;20009;-73
2021/09/23 16:29:45;;;;;;;;;;;20.60;93.60;;;;;;6197627;23;19959;-73
2021/09/23 16:32:34;;;;;;;;;;;20.60;93.70;;;;;;6215770;23;20262;-72
2021/09/23 16:35:23;;;;;;;;;;;20.50;93.60;;;;;;6217287;23;19970;-70
2021/09/23 16:38:12;;;;;;;;;;;20.50;93.80;;;;;;6198392;23;19919;-75
2021/09/23 16:41:01;;;;;;;;;;;20.40;93.90;;;;;;6219446;23;19920;-72
2021/09/23 16:43:51;;;;;;;;;;;20.40;94.10;;;;;;6199101;23;20010;-74
2021/09/23 16:47:05;;;;;;;;;;;20.30;94.20;;;;;;6211754;23;20354;-73
2021/09/23 16:49:54;;;;;;;;;;;20.30;94.50;;;;;;6199244;23;20015;-72
2021/09/23 16:52:43;;;;;;;;;;;20.20;94.60;;;;;;6201023;23;19947;-75
2021/09/23 16:55:33;;;;;;;;;;;20.10;94.60;;;;;;6221466;23;20025;-75
2021/09/23 16:58:22;;;;;;;;;;;20.10;94.70;;;;;;6222186;23;19926;-75
2021/09/23 17:01:15;;;;;;;;;;;20.00;94.90;;;;;;6214920;23;19923;-74
2021/09/23 17:04:06;;;;;;;;;;;20.00;94.80;;;;;;6220306;23;19927;-74
2021/09/23 17:06:57;;;;;;;;;;;19.90;94.90;;;;;;6220490;23;19979;-74
2021/09/23 17:09:48;;;;;;;;;;;19.90;94.90;;;;;;6199368;23;19955;-75
2021/09/23 17:12:39;;;;;;;;;;;19.80;94.90;;;;;;6200182;23;19920;-73
2021/09/23 17:15:30;;;;;;;;;;;19.80;95.10;;;;;;6214327;23;19920;-72
2021/09/23 17:18:22;;;;;;;;;;;19.70;95.10;;;;;;6196155;23;19967;-74
2021/09/23 17:21:11;;;;;;;;;;;19.70;95.30;;;;;;6193232;23;20009;-73
2021/09/23 17:24:00;;;;;;;;;;;19.60;95.40;;;;;;6221564;23;19923;-74
2021/09/23 17:27:14;;;;;;;;;;;19.60;95.50;;;;;;6215088;23;19930;-74
2021/09/23 17:30:07;;;;;;;;;;;19.50;95.60;;;;;;6194503;23;19920;-76
2021/09/23 17:33:23;;;;;;;;;;;19.50;95.70;;;;;;6223178;23;20285;-77
2021/09/23 17:36:12;;;;;;;;;;;19.40;95.80;;;;;;6201251;23;19920;-77
2021/09/23 17:39:01;;;;;;;;;;;19.40;96.00;;;;;;6225055;23;20269;-77
2021/09/23 17:41:51;;;;;;;;;;;19.30;96.10;;;;;;6203116;23;19971;-78
2021/09/23 17:44:40;;;;;;;;;;;19.30;96.20;;;;;;6222920;23;19921;-75
2021/09/23 17:47:29;;;;;;;;;;;19.20;96.30;;;;;;6220509;23;20257;-69
2021/09/23 17:50:21;;;;;;;;;;;19.20;96.50;;;;;;6219198;23;19919;-69
2021/09/23 17:53:11;;;;;;;;;;;19.10;96.60;;;;;;6195958;23;19924;-74
2021/09/23 17:56:00;;;;;;;;;;;19.10;96.70;;;;;;6219771;23;20360;-71
2021/09/23 17:58:49;;;;;;;;;;;19.00;96.70;;;;;;6217258;23;19951;-69
2021/09/23 18:01:38;;;;;;;;;;;19.00;96.80;;;;;;6211232;23;19924;-69
2021/09/23 18:04:52;;;;;;;;;;;19.00;96.90;;;;;;6216048;23;20249;-71
2021/09/23 18:07:44;;;;;;;;;;;18.90;97.00;;;;;;6197901;23;19946;-70
2021/09/23 18:10:33;;;;;;;;;;;18.90;97.10;;;;;;6229903;23;20305;-68
2021/09/23 18:13:23;;;;;;;;;;;18.90;97.20;;;;;;6217366;23;19970;-68
2021/09/23 18:16:12;;;;;;;;;;;18.80;97.40;;;;;;6209296;23;19931;-68
2021/09/23 18:19:06;;;;;;;;;;;18.80;97.50;;;;;;6216742;23;19920;-70
2021/09/23 18:21:58;;;;;;;;;;;18.80;97.60;;;;;;6217860;23;19919;-74
2021/09/23 18:24:49;;;;;;;;;;;18.70;97.60;;;;;;6218698;23;20002;-70
2021/09/23 18:27:38;;;;;;;;;;;18.70;97.70;;;;;;6216735;23;20364;-69
2021/09/23 18:30:27;;;;;;;;;;;18.70;97.80;;;;;;6208926;23;20245;-70
2021/09/23 18:33:17;;;;;;;;;;;18.60;97.90;;;;;;6217517;23;19928;-69
2021/09/23 18:36:33;;;;;;;;;;;18.60;98.00;;;;;;6213241;23;19963;-69
2021/09/23 18:39:22;;;;;;;;;;;18.50;98.00;;;;;;6215881;23;19924;-68
2021/09/23 18:42:12;;;;;;;;;;;18.50;98.10;;;;;;6212650;23;19920;-67
2021/09/23 18:45:01;;;;;;;;;;;18.50;98.20;;;;;;6214363;23;19920;-68
2021/09/23 18:47:51;;;;;;;;;;;18.40;98.30;;;;;;6192754;23;19947;-67
2021/09/23 18:50:41;;;;;;;;;;;18.30;98.40;;;;;;6192245;23;19924;-68
2021/09/23 18:53:30;;;;;;;;;;;18.30;98.40;;;;;;6214951;23;19920;-69
2021/09/23 18:56:19;;;;;;;;;;;18.30;98.60;;;;;;6212937;23;19939;-68
2021/09/23 18:59:10;;;;;;;;;;;18.20;98.50;;;;;;6193484;23;19951;-68
2021/09/23 19:01:59;;;;;;;;;;;18.20;98.50;;;;;;6213536;23;19939;-69
2021/09/23 19:04:54;;;;;;;;;;;18.20;98.40;;;;;;6196534;23;20249;-67
2021/09/23 19:07:43;;;;;;;;;;;18.10;98.40;;;;;;6213801;23;19927;-68
2021/09/23 19:10:35;;;;;;;;;;;18.10;98.50;;;;;;6192035;23;20007;-69
2021/09/23 19:13:24;;;;;;;;;;;18.00;98.60;;;;;;6190869;23;19931;-69
2021/09/23 19:16:14;;;;;;;;;;;18.00;98.70;;;;;;6206235;23;19920;-70
2021/09/23 19:19:03;;;;;;;;;;;18.00;98.80;;;;;;6214479;23;19920;-68
2021/09/23 19:21:53;;;;;;;;;;;18.00;98.90;;;;;;6211559;23;19920;-68
2021/09/23 19:24:42;;;;;;;;;;;17.90;98.90;;;;;;6216547;23;19993;-68
2021/09/23 19:27:31;;;;;;;;;;;17.90;99.00;;;;;;6214215;23;20093;-67
2021/09/23 19:30:20;;;;;;;;;;;17.90;99.10;;;;;;6207631;23;19920;-68
2021/09/23 19:33:10;;;;;;;;;;;17.90;99.30;;;;;;6214806;23;19927;-68
2021/09/23 19:36:25;;;;;;;;;;;17.80;99.20;;;;;;6214207;23;19919;-68
2021/09/23 19:39:14;;;;;;;;;;;17.80;99.30;;;;;;6217504;23;20013;-68
2021/09/23 19:42:03;;;;;;;;;;;17.80;99.40;;;;;;6216409;23;19920;-68
2021/09/23 19:44:53;;;;;;;;;;;17.70;99.60;;;;;;6214276;23;20161;-68
2021/09/23 19:47:43;;;;;;;;;;;17.70;99.80;;;;;;6214284;23;19920;-69
2021/09/23 19:50:34;;;;;;;;;;;17.60;99.90;;;;;;6218076;23;19983;-71
2021/09/23 19:53:47;;;;;;;;;;;17.60;99.90;;;;;;6219469;23;19935;-68
2021/09/23 19:56:36;;;;;;;;;;;17.50;99.90;;;;;;6221639;23;19924;-68
2021/09/23 19:59:25;;;;;;;;;;;17.50;99.90;;;;;;6217189;23;19926;-67
2021/09/23 20:02:15;;;;;;;;;;;17.50;99.90;;;;;;6208792;23;19927;-68
2021/09/23 20:05:05;;;;;;;;;;;17.50;99.90;;;;;;6214598;23;19934;-68
2021/09/23 20:07:55;;;;;;;;;;;17.40;99.90;;;;;;6216757;23;19923;-68
2021/09/23 20:11:09;;;;;;;;;;;17.40;99.90;;;;;;6192756;23;19995;-68
2021/09/23 20:13:57;;;;;;;;;;;17.40;99.90;;;;;;6213476;23;20010;-68
2021/09/23 20:16:47;;;;;;;;;;;17.30;99.90;;;;;;6204615;23;20314;-72
2021/09/23 20:19:36;;;;;;;;;;;17.30;99.90;;;;;;6216403;23;20400;-71
2021/09/23 20:22:25;;;;;;;;;;;17.30;99.90;;;;;;6215620;23;19920;-71
2021/09/23 20:25:17;;;;;;;;;;;17.30;99.90;;;;;;6193748;23;19991;-71
2021/09/23 20:28:05;;;;;;;;;;;17.20;99.90;;;;;;6213689;23;19919;-71
2021/09/23 20:30:57;;;;;;;;;;;17.20;99.90;;;;;;6186000;23;19924;-71
2021/09/23 20:33:46;;;;;;;;;;;17.20;99.90;;;;;;6217742;23;20006;-71
2021/09/23 20:36:36;;;;;;;;;;;17.10;99.90;;;;;;6219078;23;19924;-72
2021/09/23 20:39:50;;;;;;;;;;;17.10;99.90;;;;;;6218523;23;19920;-73
2021/09/23 20:42:45;;;;;;;;;;;17.10;99.90;;;;;;6216800;23;19924;-72
2021/09/23 20:45:36;;;;;;;;;;;17.00;99.90;;;;;;6209710;23;19935;-72
2021/09/23 20:48:27;;;;;;;;;;;17.00;99.90;;;;;;6217927;23;19982;-72
2021/09/23 20:51:17;;;;;;;;;;;17.00;99.90;;;;;;6218383;23;19927;-72
2021/09/23 20:54:05;;;;;;;;;;;17.00;99.90;;;;;;6197664;23;19927;-72
2021/09/23 21:00:10;;;;;;;;;;;16.90;99.90;;;;;;6209070;23;20239;-72
2021/09/23 21:03:00;;;;;;;;;;;16.90;99.90;;;;;;6215289;23;19923;-71
2021/09/23 21:05:50;;;;;;;;;;;16.90;99.90;;;;;;6217495;23;19920;-72
2021/09/23 21:08:39;;;;;;;;;;;16.90;99.90;;;;;;6216581;23;19924;-70
2021/09/23 21:11:28;;;;;;;;;;;16.90;99.90;;;;;;6216256;23;19919;-70
2021/09/23 21:14:18;;;;;;;;;;;16.90;99.90;;;;;;6216838;23;19982;-70
2021/09/23 21:17:09;;;;;;;;;;;16.80;99.90;;;;;;6179267;23;19920;-68
2021/09/23 21:19:58;;;;;;;;;;;16.80;99.90;;;;;;6186843;23;19928;-70
2021/09/23 21:22:47;;;;;;;;;;;16.80;99.90;;;;;;6187922;23;19971;-70
2021/09/23 21:25:36;;;;;;;;;;;16.80;99.90;;;;;;6189384;23;20261;-70
2021/09/23 21:28:25;;;;;;;;;;;16.80;99.90;;;;;;6187240;23;19921;-70
2021/09/23 21:31:14;;;;;;;;;;;16.80;99.90;;;;;;6178407;23;19943;-70
2021/09/23 21:34:04;;;;;;;;;;;16.70;99.90;;;;;;6189238;23;19927;-70
2021/09/23 21:36:57;;;;;;;;;;;16.70;99.90;;;;;;6186890;23;19924;-70
2021/09/23 21:39:46;;;;;;;;;;;16.70;99.90;;;;;;6187419;23;19935;-70
2021/09/23 21:42:35;;;;;;;;;;;16.70;99.90;;;;;;6166368;23;19958;-71
2021/09/23 21:45:25;;;;;;;;;;;16.70;99.90;;;;;;6160046;23;19931;-71
2021/09/23 21:48:18;;;;;;;;;;;16.70;99.90;;;;;;6186638;23;19920;-70
2021/09/23 21:51:10;;;;;;;;;;;16.70;99.90;;;;;;6190297;23;19995;-70
2021/09/23 21:53:59;;;;;;;;;;;16.70;99.90;;;;;;6186645;23;19927;-70
2021/09/23 21:56:47;;;;;;;;;;;16.70;99.90;;;;;;6164082;23;19920;-70
2021/09/23 21:59:36;;;;;;;;;;;16.70;99.90;;;;;;6188028;23;20360;-70
2021/09/23 22:02:26;;;;;;;;;;;16.70;99.90;;;;;;6180329;23;19920;-70
2021/09/23 22:08:30;;;;;;;;;;;16.70;99.90;;;;;;6187241;23;19920;-70
2021/09/23 22:11:19;;;;;;;;;;;16.80;99.90;;;;;;6187879;23;19995;-72
2021/09/23 22:14:08;;;;;;;;;;;16.70;99.90;;;;;;6186814;23;19991;-71
2021/09/23 22:16:57;;;;;;;;;;;16.60;99.90;;;;;;6190169;23;19926;-70
2021/09/23 22:19:46;;;;;;;;;;;16.60;99.90;;;;;;6218072;23;19928;-70
2021/09/23 22:22:39;;;;;;;;;;;16.60;99.90;;;;;;6218251;23;19927;-70
2021/09/23 22:25:30;;;;;;;;;;;16.60;99.90;;;;;;6218836;23;19927;-70
2021/09/23 22:28:19;;;;;;;;;;;16.60;99.90;;;;;;6217542;23;20010;-71
2021/09/23 22:31:11;;;;;;;;;;;16.50;99.90;;;;;;6211218;23;20283;-70
2021/09/23 22:34:01;;;;;;;;;;;16.60;99.90;;;;;;6218072;23;20354;-70
2021/09/23 22:36:50;;;;;;;;;;;16.60;99.90;;;;;;6217020;23;20016;-70
2021/09/23 22:39:39;;;;;;;;;;;16.60;99.90;;;;;;6217212;23;19919;-70
2021/09/23 22:42:32;;;;;;;;;;;16.60;99.90;;;;;;6216540;23;19927;-71
2021/09/23 22:45:21;;;;;;;;;;;16.60;99.90;;;;;;6209355;23;19931;-71
2021/09/23 22:51:23;;;;;;;;;;;16.50;99.90;;;;;;6217902;23;19920;-70
2021/09/23 22:54:13;;;;;;;;;;;16.40;99.90;;;;;;6218304;23;19958;-70
2021/09/23 22:57:02;;;;;;;;;;;16.40;99.90;;;;;;6216993;23;19996;-70
2021/09/23 22:59:55;;;;;;;;;;;16.40;99.90;;;;;;6217254;23;22250;-70
2021/09/23 23:02:44;;;;;;;;;;;16.40;99.90;;;;;;6217475;23;19957;-71
2021/09/23 23:05:37;;;;;;;;;;;16.30;99.90;;;;;;6217189;23;19970;-70
2021/09/23 23:08:26;;;;;;;;;;;16.40;99.90;;;;;;6218176;23;19920;-69
2021/09/23 23:11:15;;;;;;;;;;;16.40;99.90;;;;;;6218818;23;19920;-70
2021/09/23 23:14:04;;;;;;;;;;;16.30;99.90;;;;;;6195980;23;19930;-70
2021/09/23 23:20:10;;;;;;;;;;;16.30;99.90;;;;;;6217576;23;19958;-70
2021/09/23 23:22:59;;;;;;;;;;;16.30;99.90;;;;;;6217248;23;19995;-70
2021/09/23 23:25:49;;;;;;;;;;;16.30;99.90;;;;;;6219932;23;19924;-70
2021/09/23 23:28:38;;;;;;;;;;;16.30;99.90;;;;;;6219241;23;19931;-70
2021/09/23 23:31:26;;;;;;;;;;;16.30;99.90;;;;;;6213843;23;19920;-70
2021/09/23 23:34:16;;;;;;;;;;;16.20;99.90;;;;;;6220188;23;20245;-71
2021/09/23 23:37:05;;;;;;;;;;;16.20;99.90;;;;;;6218542;23;20233;-71
2021/09/23 23:39:55;;;;;;;;;;;16.20;99.90;;;;;;6218913;23;19920;-70
2021/09/23 23:42:44;;;;;;;;;;;16.20;99.90;;;;;;6197121;23;19924;-70
2021/09/23 23:45:36;;;;;;;;;;;16.10;99.90;;;;;;6211209;23;19927;-70
2021/09/23 23:48:24;;;;;;;;;;;16.10;99.90;;;;;;6220820;23;19920;-71
2021/09/23 23:51:15;;;;;;;;;;;16.10;99.90;;;;;;6220514;23;19920;-71
2021/09/23 23:54:04;;;;;;;;;;;16.00;99.90;;;;;;6220147;23;19924;-70
2021/09/23 23:56:53;;;;;;;;;;;16.00;99.90;;;;;;6220645;23;19944;-71
2021/09/23 23:59:44;;;;;;;;;;;16.00;99.90;;;;;;6219317;23;19920;-70
